createdAt,value
2017-08-08T00:02:19.983Z,45.69
2017-08-08T00:04:52.539Z,45.68
2017-08-08T00:07:27.225Z,45.47
2017-08-08T00:10:02.762Z,45.50
2017-08-08T00:12:35.414Z,45.69
2017-08-08T00:15:08.338Z,45.41
2017-08-08T00:17:41.283Z,45.61
2017-08-08T00:20:13.972Z,45.54
2017-08-08T00:22:48.280Z,45.76
2017-08-08T00:25:20.367Z,45.42
2017-08-08T00:27:53.113Z,45.53
2017-08-08T00:30:28.232Z,45.54
2017-08-08T00:33:01.653Z,45.54
2017-08-08T00:35:34.055Z,45.56
2017-08-08T00:38:06.926Z,45.49
2017-08-08T00:40:39.273Z,45.53
2017-08-08T00:43:12.999Z,45.57
2017-08-08T00:45:45.651Z,45.71
2017-08-08T00:48:18.525Z,45.77
2017-08-08T00:50:51.106Z,45.92
2017-08-08T00:53:24.257Z,45.95
2017-08-08T00:55:59.771Z,45.74
2017-08-08T00:58:32.037Z,46.00
2017-08-08T01:01:05.262Z,46.05
2017-08-08T01:03:37.823Z,46.13
2017-08-08T01:06:10.765Z,46.16
2017-08-08T01:08:44.541Z,46.17
2017-08-08T01:11:17.250Z,46.09
2017-08-08T01:13:49.693Z,46.13
2017-08-08T01:16:22.003Z,46.07
2017-08-08T01:18:57.122Z,46.08
2017-08-08T01:21:29.921Z,46.14
2017-08-08T01:24:02.288Z,46.03
2017-08-08T01:26:35.028Z,45.99
2017-08-08T01:29:07.920Z,45.84
2017-08-08T01:31:41.356Z,45.90
2017-08-08T01:34:13.518Z,45.92
2017-08-08T01:36:49.561Z,46.01
2017-08-08T01:39:21.623Z,46.17
2017-08-08T01:41:59.387Z,46.07
2017-08-08T01:44:32.975Z,46.17
2017-08-08T01:47:06.402Z,46.31
2017-08-08T01:49:39.032Z,46.31
2017-08-08T01:52:13.409Z,46.13
2017-08-08T01:54:47.216Z,46.49
2017-08-08T01:57:19.331Z,46.40
2017-08-08T01:59:55.690Z,46.54
2017-08-08T02:02:33.009Z,46.43
2017-08-08T02:05:05.721Z,46.51
2017-08-08T02:07:38.833Z,46.60
2017-08-08T02:10:13.921Z,46.59
2017-08-08T02:12:46.053Z,46.50
2017-08-08T02:15:19.780Z,46.52
2017-08-08T02:17:52.388Z,46.70
2017-08-08T02:20:28.564Z,46.70
2017-08-08T02:23:04.702Z,46.58
2017-08-08T02:25:38.318Z,46.68
2017-08-08T02:28:11.536Z,46.58
2017-08-08T02:30:44.916Z,46.57
2017-08-08T02:33:18.803Z,46.49
2017-08-08T02:35:56.536Z,46.49
2017-08-08T02:38:33.797Z,46.42
2017-08-08T02:41:06.222Z,46.56
2017-08-08T02:43:39.752Z,46.50
2017-08-08T02:46:17.327Z,46.52
2017-08-08T02:48:50.874Z,46.55
2017-08-08T02:51:23.520Z,46.42
2017-08-08T02:53:59.163Z,46.75
2017-08-08T02:56:31.817Z,46.54
2017-08-08T02:59:04.727Z,46.66
2017-08-08T03:01:37.448Z,46.74
2017-08-08T03:04:11.940Z,46.73
2017-08-08T03:06:44.996Z,46.50
2017-08-08T03:09:18.189Z,46.57
2017-08-08T03:11:52.415Z,46.83
2017-08-08T03:14:32.837Z,46.71
2017-08-08T03:17:11.723Z,46.71
2017-08-08T03:19:48.254Z,46.46
2017-08-08T03:22:20.810Z,46.56
2017-08-08T03:24:57.391Z,46.63
2017-08-08T03:27:33.137Z,46.69
2017-08-08T03:30:10.778Z,46.73
2017-08-08T03:32:42.732Z,46.72
2017-08-08T03:35:14.961Z,46.81
2017-08-08T03:37:48.065Z,46.60
2017-08-08T03:40:20.480Z,46.74
2017-08-08T03:45:32.169Z,46.53
2017-08-08T03:48:07.184Z,46.49
2017-08-08T03:50:40.421Z,46.62
2017-08-08T03:53:14.668Z,46.91
2017-08-08T03:55:48.972Z,46.74
2017-08-08T03:58:22.408Z,46.70
2017-08-08T04:01:00.133Z,46.65
2017-08-08T04:03:36.577Z,46.98
2017-08-08T04:06:14.119Z,46.73
2017-08-08T04:08:46.855Z,46.68
2017-08-08T04:11:23.593Z,46.78
2017-08-08T04:14:01.626Z,46.86
2017-08-08T04:16:35.027Z,46.93
2017-08-08T04:19:07.867Z,46.98
2017-08-08T04:21:40.490Z,46.93
2017-08-08T04:24:13.059Z,46.90
2017-08-08T04:26:46.265Z,47.09
2017-08-08T04:29:20.555Z,47.33
2017-08-08T04:31:59.956Z,47.25
2017-08-08T04:34:32.896Z,47.09
2017-08-08T04:37:06.530Z,47.25
2017-08-08T04:39:38.825Z,47.09
2017-08-08T04:42:11.184Z,47.12
2017-08-08T04:44:43.533Z,47.17
2017-08-08T04:47:15.779Z,47.18
2017-08-08T04:49:49.192Z,47.20
2017-08-08T04:52:21.398Z,47.24
2017-08-08T04:54:56.119Z,47.31
2017-08-08T04:57:28.443Z,47.15
2017-08-08T05:00:02.551Z,47.00
2017-08-08T05:02:36.322Z,46.80
2017-08-08T05:05:10.159Z,45.95
2017-08-08T05:07:43.408Z,45.85
2017-08-08T05:10:15.498Z,45.71
2017-08-08T05:12:48.451Z,46.43
2017-08-08T05:15:21.166Z,46.74
2017-08-08T05:17:56.481Z,46.90
2017-08-08T05:20:29.610Z,46.98
2017-08-08T05:23:04.449Z,47.21
2017-08-08T05:25:37.983Z,47.25
2017-08-08T05:28:11.148Z,47.30
2017-08-08T05:30:48.015Z,47.36
2017-08-08T05:33:24.652Z,47.40
2017-08-08T05:36:04.226Z,47.45
2017-08-08T05:38:41.639Z,47.43
2017-08-08T05:41:19.910Z,47.47
2017-08-08T05:43:53.171Z,47.60
2017-08-08T05:46:32.370Z,47.61
2017-08-08T05:49:10.054Z,47.79
2017-08-08T05:51:49.224Z,47.61
2017-08-08T05:54:28.047Z,47.72
2017-08-08T05:57:06.277Z,47.70
2017-08-08T05:59:40.217Z,47.84
2017-08-08T06:02:18.669Z,47.76
2017-08-08T06:04:59.102Z,47.79
2017-08-08T06:07:42.679Z,47.99
2017-08-08T06:10:22.089Z,48.00
2017-08-08T06:13:03.974Z,47.96
2017-08-08T06:15:42.053Z,47.98
2017-08-08T06:18:19.129Z,47.92
2017-08-08T06:20:59.286Z,47.88
2017-08-08T06:23:32.776Z,47.88
2017-08-08T06:26:13.276Z,47.82
2017-08-08T06:28:52.252Z,47.78
2017-08-08T06:31:33.575Z,47.80
2017-08-08T06:34:06.278Z,47.73
2017-08-08T06:36:45.531Z,47.76
2017-08-08T06:39:20.538Z,47.92
2017-08-08T06:42:12.160Z,48.24
2017-08-08T06:44:50.368Z,48.40
2017-08-08T06:47:24.461Z,48.53
2017-08-08T06:50:02.198Z,48.55
2017-08-08T06:52:38.810Z,48.41
2017-08-08T06:55:15.347Z,48.41
2017-08-08T07:00:34.545Z,48.26
2017-08-08T07:03:09.360Z,48.09
2017-08-08T07:05:50.273Z,48.10
2017-08-08T07:08:25.085Z,48.20
2017-08-08T07:11:04.642Z,48.09
2017-08-08T07:13:39.885Z,48.25
2017-08-08T07:16:13.820Z,48.24
2017-08-08T07:18:50.370Z,48.16
2017-08-08T07:21:26.098Z,48.28
2017-08-08T07:24:04.858Z,48.27
2017-08-08T07:26:41.916Z,48.27
2017-08-08T07:29:22.244Z,48.23
2017-08-08T07:32:06.657Z,48.45
2017-08-08T07:34:48.091Z,49.11
2017-08-08T07:37:21.481Z,49.63
2017-08-08T07:40:08.923Z,50.22
2017-08-08T07:42:42.966Z,49.57
2017-08-08T07:45:16.904Z,50.10
2017-08-08T07:47:49.791Z,49.55
2017-08-08T07:50:26.371Z,49.49
2017-08-08T07:53:06.445Z,49.29
2017-08-08T07:55:41.335Z,49.27
2017-08-08T08:00:55.804Z,49.24
2017-08-08T08:03:31.776Z,49.58
2017-08-08T08:06:05.955Z,49.45
2017-08-08T08:08:44.249Z,49.31
2017-08-08T08:11:17.510Z,49.13
2017-08-08T08:13:56.055Z,48.88
2017-08-08T08:16:29.984Z,48.10
2017-08-08T08:19:03.546Z,48.36
2017-08-08T08:21:40.146Z,48.48
2017-08-08T08:24:15.892Z,47.26
2017-08-08T08:26:49.453Z,47.33
2017-08-08T08:29:27.700Z,47.07
2017-08-08T08:32:04.087Z,47.25
2017-08-08T08:34:36.819Z,47.18
2017-08-08T08:37:10.915Z,46.97
2017-08-08T08:39:44.045Z,46.86
2017-08-08T08:42:17.216Z,46.48
2017-08-08T08:44:50.658Z,46.11
2017-08-08T08:47:23.989Z,45.87
2017-08-08T08:50:05.404Z,46.13
2017-08-08T08:52:42.004Z,46.41
2017-08-08T08:55:18.244Z,46.04
2017-08-08T08:57:50.959Z,46.54
2017-08-08T09:00:24.215Z,46.10
2017-08-08T09:03:02.519Z,46.70
2017-08-08T09:05:37.350Z,46.25
2017-08-08T09:08:13.409Z,46.27
2017-08-08T09:10:47.338Z,46.58
2017-08-08T09:13:20.582Z,46.77
2017-08-08T09:18:31.612Z,46.72
2017-08-08T09:21:04.590Z,46.94
2017-08-08T09:23:37.351Z,47.08
2017-08-08T09:26:10.147Z,47.34
2017-08-08T09:28:43.496Z,47.10
2017-08-08T09:31:18.010Z,47.41
2017-08-08T09:33:52.182Z,47.66
2017-08-08T09:36:27.748Z,47.71
2017-08-08T09:39:04.963Z,47.59
2017-08-08T09:41:38.565Z,47.45
2017-08-08T09:44:11.570Z,47.36
2017-08-08T09:46:45.320Z,47.30
2017-08-08T09:49:18.545Z,47.25
2017-08-08T09:51:51.197Z,47.14
2017-08-08T09:54:25.750Z,47.13
2017-08-08T09:57:01.023Z,47.08
2017-08-08T10:00:07.522Z,47.01
2017-08-08T10:02:41.892Z,46.81
2017-08-08T10:05:19.892Z,46.94
2017-08-08T10:07:57.860Z,47.01
2017-08-08T10:10:30.896Z,46.56
2017-08-08T10:13:05.604Z,46.61
2017-08-08T10:15:38.779Z,46.37
2017-08-08T10:18:14.848Z,46.29
2017-08-08T10:20:49.120Z,46.30
2017-08-08T10:23:22.428Z,46.37
2017-08-08T10:26:03.174Z,46.41
2017-08-08T10:28:37.771Z,46.51
2017-08-08T10:31:13.387Z,46.61
2017-08-08T10:33:47.181Z,46.61
2017-08-08T10:36:27.332Z,46.60
2017-08-08T10:39:12.327Z,46.56
2017-08-08T10:41:50.205Z,46.65
2017-08-08T10:44:22.922Z,46.72
2017-08-08T10:47:00.199Z,46.78
2017-08-08T10:49:34.403Z,46.83
2017-08-08T10:52:10.360Z,46.82
2017-08-08T10:54:49.339Z,46.64
2017-08-08T10:57:22.247Z,46.62
2017-08-08T11:00:01.839Z,46.54
2017-08-08T11:02:35.343Z,46.44
2017-08-08T11:05:10.722Z,46.52
2017-08-08T11:07:44.000Z,46.58
2017-08-08T11:10:17.756Z,46.52
2017-08-08T11:12:51.348Z,46.39
2017-08-08T11:15:26.820Z,46.42
2017-08-08T11:17:59.850Z,46.41
2017-08-08T11:20:37.705Z,46.44
2017-08-08T11:23:12.521Z,46.41
2017-08-08T11:25:46.513Z,46.29
2017-08-08T11:28:22.409Z,46.28
2017-08-08T11:31:01.091Z,46.29
2017-08-08T11:33:36.390Z,46.21
2017-08-08T11:36:11.139Z,46.21
2017-08-08T11:38:43.953Z,46.05
2017-08-08T11:41:17.576Z,46.04
2017-08-08T11:43:49.993Z,46.13
2017-08-08T11:46:24.537Z,46.09
2017-08-08T11:49:03.429Z,45.98
2017-08-08T11:51:37.119Z,46.07
2017-08-08T11:54:14.054Z,46.09
2017-08-08T11:56:47.455Z,45.99
2017-08-08T11:59:32.482Z,46.02
2017-08-08T12:02:08.293Z,46.06
2017-08-08T12:04:41.425Z,45.90
2017-08-08T12:07:15.716Z,45.93
2017-08-08T12:09:48.016Z,45.93
2017-08-08T12:12:20.781Z,45.92
2017-08-08T12:14:54.299Z,45.90
2017-08-08T12:17:26.820Z,45.85
2017-08-08T12:20:04.477Z,45.72
2017-08-08T12:22:37.595Z,45.63
2017-08-08T12:25:10.795Z,45.70
2017-08-08T12:27:43.965Z,45.65
2017-08-08T12:30:17.422Z,45.60
2017-08-08T12:32:51.942Z,45.61
2017-08-08T12:35:25.091Z,45.72
2017-08-08T12:38:00.303Z,45.76
2017-08-08T12:40:32.952Z,45.78
2017-08-08T12:43:06.113Z,45.75
2017-08-08T12:45:39.863Z,45.63
2017-08-08T12:48:12.866Z,45.66
2017-08-08T12:50:49.888Z,45.81
2017-08-08T12:53:22.652Z,45.87
2017-08-08T12:55:56.961Z,45.92
2017-08-08T12:58:49.946Z,45.87
2017-08-08T13:01:23.899Z,45.76
2017-08-08T13:03:56.886Z,45.63
2017-08-08T13:06:31.799Z,45.56
2017-08-08T13:09:07.924Z,45.52
2017-08-08T13:11:43.421Z,45.56
2017-08-08T13:17:44.019Z,45.40
2017-08-08T13:20:48.386Z,45.33
2017-08-08T13:23:22.858Z,45.31
2017-08-08T13:26:33.264Z,45.41
2017-08-08T13:29:18.890Z,45.51
2017-08-08T13:31:57.036Z,45.66
2017-08-08T13:34:29.185Z,45.81
2017-08-08T13:37:03.893Z,45.84
2017-08-08T13:39:36.370Z,46.00
2017-08-08T13:42:08.548Z,46.05
2017-08-08T13:45:06.464Z,46.14
2017-08-08T13:47:38.397Z,46.22
2017-08-08T13:50:14.327Z,46.31
2017-08-08T13:52:48.542Z,46.42
2017-08-08T13:55:21.146Z,46.48
2017-08-08T13:58:39.174Z,46.51
2017-08-08T14:01:19.948Z,46.71
2017-08-08T14:04:16.550Z,46.76
2017-08-08T14:06:48.788Z,46.71
2017-08-08T14:09:23.097Z,46.79
2017-08-08T14:11:54.986Z,46.88
2017-08-08T14:14:29.062Z,46.86
2017-08-08T14:17:21.242Z,46.85
2017-08-08T14:19:57.534Z,46.89
2017-08-08T14:22:30.996Z,46.84
2017-08-08T14:25:04.411Z,46.88
2017-08-08T14:27:37.164Z,46.82
2017-08-08T14:30:10.781Z,46.86
2017-08-08T14:32:47.607Z,47.00
2017-08-08T14:35:19.636Z,46.90
2017-08-08T14:37:51.464Z,46.90
2017-08-08T14:40:23.454Z,46.90
2017-08-08T14:42:57.992Z,46.94
2017-08-08T14:45:30.742Z,46.99
2017-08-08T14:48:03.252Z,47.10
2017-08-08T14:50:46.571Z,47.03
2017-08-08T14:53:18.439Z,47.04
2017-08-08T14:55:51.681Z,46.98
2017-08-08T14:58:24.092Z,46.87
2017-08-08T15:01:05.889Z,46.91
2017-08-08T15:03:38.130Z,47.01
2017-08-08T15:06:10.609Z,47.04
2017-08-08T15:08:42.465Z,47.07
2017-08-08T15:11:14.911Z,47.24
2017-08-08T15:13:47.327Z,47.25
2017-08-08T15:16:26.219Z,47.42
2017-08-08T15:19:03.201Z,47.41
2017-08-08T15:21:35.239Z,47.37
2017-08-08T15:24:08.809Z,47.25
2017-08-08T15:26:40.866Z,47.26
2017-08-08T15:29:12.847Z,47.34
2017-08-08T15:31:45.426Z,47.39
2017-08-08T15:34:19.776Z,47.33
2017-08-08T15:36:52.978Z,47.33
2017-08-08T15:39:30.641Z,47.30
2017-08-08T15:42:10.667Z,47.17
2017-08-08T15:44:43.690Z,47.31
2017-08-08T15:47:22.030Z,47.30
2017-08-08T15:49:58.343Z,47.30
2017-08-08T15:52:32.173Z,47.37
2017-08-08T15:55:04.825Z,47.42
2017-08-08T15:57:37.896Z,47.47
2017-08-08T16:00:14.896Z,47.56
2017-08-08T16:02:47.264Z,47.60
2017-08-08T16:05:20.502Z,47.57
2017-08-08T16:07:52.071Z,47.55
2017-08-08T16:10:24.584Z,47.61
2017-08-08T16:12:58.822Z,47.51
2017-08-08T16:16:42.250Z,47.57
2017-08-08T16:19:18.091Z,47.70
2017-08-08T16:24:34.536Z,47.93
2017-08-08T16:27:07.038Z,48.01
2017-08-08T16:29:39.693Z,48.03
2017-08-08T16:32:12.074Z,48.10
2017-08-08T16:34:44.749Z,48.12
2017-08-08T16:37:19.236Z,48.13
2017-08-08T16:39:53.177Z,48.18
2017-08-08T16:42:25.933Z,48.18
2017-08-08T16:45:03.053Z,48.16
2017-08-08T16:47:35.261Z,48.22
2017-08-08T16:50:10.115Z,48.31
2017-08-08T16:52:46.378Z,48.41
2017-08-08T16:55:18.832Z,48.47
2017-08-08T16:57:50.393Z,48.64
2017-08-08T17:00:24.012Z,48.65
2017-08-08T17:02:58.837Z,48.80
2017-08-08T17:05:30.752Z,48.84
2017-08-08T17:08:03.413Z,48.83
2017-08-08T17:10:36.248Z,48.94
2017-08-08T17:13:08.423Z,49.02
2017-08-08T17:15:50.490Z,49.16
2017-08-08T17:18:22.316Z,49.26
2017-08-08T17:20:57.467Z,49.25
2017-08-08T17:23:30.651Z,49.31
2017-08-08T17:26:03.392Z,49.33
2017-08-08T17:28:36.049Z,49.41
2017-08-08T17:31:08.071Z,49.43
2017-08-08T17:33:42.381Z,49.39
2017-08-08T17:36:16.192Z,49.28
2017-08-08T17:38:48.711Z,49.08
2017-08-08T17:41:29.547Z,49.01
2017-08-08T17:44:09.017Z,48.88
2017-08-08T17:46:42.451Z,48.83
2017-08-08T17:49:16.839Z,48.84
2017-08-08T17:51:48.943Z,48.77
2017-08-08T17:54:21.240Z,48.90
2017-08-08T17:56:57.567Z,48.90
2017-08-08T17:59:35.947Z,48.86
2017-08-08T18:02:10.313Z,48.91
2017-08-08T18:04:50.743Z,48.93
2017-08-08T18:07:24.386Z,48.89
2017-08-08T18:09:59.624Z,48.85
2017-08-08T18:12:49.572Z,48.83
2017-08-08T18:15:31.439Z,48.86
2017-08-08T18:18:03.361Z,48.90
2017-08-08T18:20:36.403Z,48.92
2017-08-08T18:23:10.283Z,48.96
2017-08-08T18:25:46.582Z,48.95
2017-08-08T18:28:21.934Z,48.95
2017-08-08T18:30:54.727Z,48.87
2017-08-08T18:33:26.722Z,48.80
2017-08-08T18:36:00.889Z,48.77
2017-08-08T18:38:34.741Z,48.84
2017-08-08T18:41:06.676Z,48.90
2017-08-08T18:43:39.446Z,48.89
2017-08-08T18:46:11.951Z,48.92
2017-08-08T18:48:44.034Z,49.02
2017-08-08T18:51:18.276Z,49.04
2017-08-08T18:53:52.688Z,49.11
2017-08-08T18:56:28.836Z,49.15
2017-08-08T18:59:05.708Z,49.22
2017-08-08T19:01:38.729Z,49.29
2017-08-08T19:04:16.126Z,49.31
2017-08-08T19:06:48.078Z,49.35
2017-08-08T19:09:21.130Z,49.39
2017-08-08T19:11:55.869Z,49.44
2017-08-08T19:14:34.167Z,49.48
2017-08-08T19:17:09.527Z,49.54
2017-08-08T19:19:44.807Z,49.71
2017-08-08T19:22:16.645Z,49.81
2017-08-08T19:24:57.016Z,50.02
2017-08-08T19:27:29.650Z,49.99
2017-08-08T19:30:05.513Z,50.05
2017-08-08T19:32:40.511Z,50.04
2017-08-08T19:35:16.901Z,50.12
2017-08-08T19:37:50.950Z,50.27
2017-08-08T19:40:25.523Z,50.33
2017-08-08T19:43:01.170Z,50.38
2017-08-08T19:45:35.968Z,50.53
2017-08-08T19:48:08.101Z,50.52
2017-08-08T19:50:42.017Z,50.74
2017-08-08T19:53:17.080Z,50.68
2017-08-08T19:55:56.029Z,50.80
2017-08-08T19:58:51.393Z,50.86
2017-08-08T20:01:24.650Z,50.82
2017-08-08T20:03:59.467Z,50.84
2017-08-08T20:06:34.130Z,50.91
2017-08-08T20:09:09.512Z,50.97
2017-08-08T20:11:41.799Z,50.94
2017-08-08T20:14:15.533Z,50.99
2017-08-08T20:16:48.351Z,51.14
2017-08-08T20:19:20.549Z,51.01
2017-08-08T20:21:58.507Z,51.01
2017-08-08T20:24:31.538Z,50.89
2017-08-08T20:27:03.446Z,50.96
2017-08-08T20:29:36.859Z,50.96
2017-08-08T20:32:10.083Z,51.06
2017-08-08T20:34:41.897Z,51.53
2017-08-08T20:37:14.055Z,51.92
2017-08-08T20:39:49.109Z,51.97
2017-08-08T20:42:22.753Z,51.63
2017-08-08T20:45:01.480Z,51.73
2017-08-08T20:47:33.674Z,51.59
2017-08-08T20:50:07.748Z,51.57
2017-08-08T20:52:40.732Z,51.48
2017-08-08T20:55:12.656Z,51.50
2017-08-08T20:57:48.214Z,51.47
2017-08-08T21:00:23.017Z,51.45
2017-08-08T21:02:57.728Z,51.43
2017-08-08T21:05:31.215Z,51.36
2017-08-08T21:08:04.564Z,51.38
2017-08-08T21:10:36.251Z,51.39
2017-08-08T21:13:08.494Z,51.36
2017-08-08T21:15:40.193Z,51.35
2017-08-08T21:18:12.345Z,51.33
2017-08-08T21:20:44.245Z,51.25
2017-08-08T21:23:15.899Z,51.24
2017-08-08T21:25:47.299Z,51.23
2017-08-08T21:28:19.428Z,51.22
2017-08-08T21:30:51.983Z,51.26
2017-08-08T21:33:24.107Z,51.22
2017-08-08T21:35:59.008Z,51.14
2017-08-08T21:38:32.586Z,51.07
2017-08-08T21:41:04.751Z,51.16
2017-08-08T21:43:38.353Z,51.10
2017-08-08T21:46:10.626Z,51.12
2017-08-08T21:48:43.057Z,51.16
2017-08-08T21:51:15.485Z,51.17
2017-08-08T21:53:48.191Z,51.17
2017-08-08T21:56:23.843Z,51.28
2017-08-08T21:59:03.815Z,51.25
2017-08-08T22:01:38.618Z,51.23
2017-08-08T22:04:11.780Z,51.18
2017-08-08T22:06:43.659Z,51.22
2017-08-08T22:09:19.928Z,51.22
2017-08-08T22:11:53.036Z,51.27
2017-08-08T22:14:26.636Z,51.25
2017-08-08T22:17:02.548Z,51.27
2017-08-08T22:19:34.817Z,51.28
2017-08-08T22:22:08.256Z,51.32
2017-08-08T22:24:42.479Z,51.34
2017-08-08T22:27:17.807Z,51.37
2017-08-08T22:30:00.455Z,51.39
2017-08-08T22:35:30.024Z,51.45
2017-08-08T22:38:03.821Z,51.47
2017-08-08T22:40:36.334Z,51.59
2017-08-08T22:43:12.407Z,51.55
2017-08-08T22:45:45.106Z,51.57
2017-08-08T22:48:18.781Z,51.63
2017-08-08T22:50:50.729Z,51.61
2017-08-08T22:53:22.139Z,51.65
2017-08-08T22:55:56.715Z,51.70
2017-08-08T22:58:29.228Z,51.75
2017-08-08T23:01:08.311Z,51.73
2017-08-08T23:03:40.664Z,51.84
2017-08-08T23:06:12.226Z,51.82
2017-08-08T23:08:45.293Z,51.74
2017-08-08T23:11:17.066Z,52.08
2017-08-08T23:13:49.435Z,51.95
2017-08-08T23:16:20.996Z,51.84
2017-08-08T23:18:53.445Z,51.90
2017-08-08T23:21:25.983Z,51.98
2017-08-08T23:24:06.719Z,52.00
2017-08-08T23:26:38.992Z,51.93
2017-08-08T23:29:10.501Z,51.96
2017-08-08T23:31:42.938Z,51.98
2017-08-08T23:34:16.893Z,51.93
2017-08-08T23:36:49.109Z,51.90
2017-08-08T23:39:22.182Z,51.98
2017-08-08T23:41:57.040Z,51.98
2017-08-08T23:44:29.337Z,51.97
2017-08-08T23:47:02.486Z,51.84
2017-08-08T23:49:33.821Z,51.85
2017-08-08T23:52:06.009Z,51.88
2017-08-08T23:54:38.277Z,51.92
2017-08-08T23:57:11.261Z,51.85
2017-08-08T23:59:45.077Z,51.88
